createdAt,value
2023-09-01T00:01:02.377Z,68.25
2023-09-01T00:03:29.107Z,68.18
2023-09-01T00:05:55.691Z,68.42
2023-09-01T00:08:22.274Z,68.37
2023-09-01T00:10:48.797Z,68.56
2023-09-01T00:13:15.312Z,68.72
2023-09-01T00:15:41.819Z,68.57
2023-09-01T00:18:08.241Z,68.73
2023-09-01T00:20:36.145Z,68.70
2023-09-01T00:23:04.818Z,68.91
2023-09-01T00:25:32.039Z,69.34
2023-09-01T00:27:58.495Z,69.24
2023-09-01T00:30:30.569Z,69.62
2023-09-01T00:32:57.641Z,69.02
2023-09-01T00:35:24.120Z,69.34
2023-09-01T00:37:52.669Z,69.70
2023-09-01T00:40:19.279Z,69.63
2023-09-01T00:42:45.717Z,69.62
2023-09-01T00:45:12.305Z,69.72
2023-09-01T00:47:38.844Z,69.93
2023-09-01T00:50:09.829Z,69.77
2023-09-01T00:52:36.864Z,69.71
2023-09-01T00:55:04.306Z,69.68
2023-09-01T00:57:31.001Z,70.44
2023-09-01T00:59:58.199Z,70.37
2023-09-01T01:02:26.813Z,70.41
2023-09-01T01:04:56.152Z,70.95
2023-09-01T01:07:31.249Z,71.37
2023-09-01T01:10:17.658Z,71.28
2023-09-01T01:12:58.811Z,71.07
2023-09-01T01:15:26.383Z,71.03
2023-09-01T01:17:56.297Z,71.08
2023-09-01T01:20:34.453Z,71.41
2023-09-01T01:23:12.187Z,71.29
2023-09-01T01:25:46.450Z,71.57
2023-09-01T01:28:13.139Z,71.42
2023-09-01T01:30:40.455Z,71.47
2023-09-01T01:33:15.606Z,71.80
2023-09-01T01:35:54.833Z,71.47
2023-09-01T01:38:29.249Z,71.87
2023-09-01T01:41:11.028Z,72.24
2023-09-01T01:43:39.625Z,71.96
2023-09-01T01:46:07.212Z,72.13
2023-09-01T01:48:39.780Z,72.55
2023-09-01T01:51:09.086Z,72.37
2023-09-01T01:53:36.335Z,72.64
2023-09-01T01:56:04.886Z,72.76
2023-09-01T01:58:32.162Z,72.65
2023-09-01T02:00:59.406Z,72.83
2023-09-01T02:03:25.888Z,73.15
2023-09-01T02:05:54.622Z,72.99
2023-09-01T02:08:22.578Z,73.34
2023-09-01T02:10:49.834Z,73.14
2023-09-01T02:13:16.266Z,73.46
2023-09-01T02:15:51.761Z,73.61
2023-09-01T02:18:18.425Z,73.47
2023-09-01T02:20:46.499Z,73.24
2023-09-01T02:23:21.002Z,74.03
2023-09-01T02:25:47.528Z,73.82
2023-09-01T02:28:14.357Z,74.03
2023-09-01T02:30:41.049Z,74.03
2023-09-01T02:33:07.823Z,73.98
2023-09-01T02:35:42.890Z,74.32
2023-09-01T02:38:09.340Z,74.17
2023-09-01T02:40:35.775Z,74.33
2023-09-01T02:43:02.197Z,74.42
2023-09-01T02:45:28.696Z,74.78
2023-09-01T02:47:55.185Z,74.84
2023-09-01T02:50:21.708Z,74.63
2023-09-01T02:52:48.179Z,74.83
2023-09-01T02:55:17.345Z,74.84
2023-09-01T02:57:43.806Z,75.05
2023-09-01T03:00:19.336Z,74.93
2023-09-01T03:02:46.757Z,74.95
2023-09-01T03:05:13.478Z,75.26
2023-09-01T03:07:40.296Z,75.16
2023-09-01T03:10:09.197Z,75.16
2023-09-01T03:12:38.724Z,75.58
2023-09-01T03:15:10.432Z,75.36
2023-09-01T03:17:37.193Z,75.41
2023-09-01T03:20:05.560Z,75.33
2023-09-01T03:22:32.486Z,75.46
2023-09-01T03:24:58.950Z,75.36
2023-09-01T03:27:25.408Z,75.38
2023-09-01T03:29:55.185Z,75.46
2023-09-01T03:32:21.709Z,75.56
2023-09-01T03:34:48.276Z,75.55
2023-09-01T03:37:14.795Z,75.80
2023-09-01T03:39:41.263Z,75.27
2023-09-01T03:42:07.763Z,75.62
2023-09-01T03:44:34.512Z,75.59
2023-09-01T03:47:00.985Z,75.71
2023-09-01T03:49:27.862Z,75.81
2023-09-01T03:51:54.412Z,76.01
2023-09-01T03:54:20.844Z,75.97
2023-09-01T03:56:47.279Z,75.91
2023-09-01T03:59:13.735Z,75.87
2023-09-01T04:01:40.216Z,76.04
2023-09-01T04:04:07.657Z,75.91
2023-09-01T04:06:34.144Z,76.14
2023-09-01T04:09:00.700Z,76.02
2023-09-01T04:11:27.164Z,76.11
2023-09-01T04:13:56.255Z,76.23
2023-09-01T04:16:23.449Z,76.33
2023-09-01T04:18:50.010Z,76.17
2023-09-01T04:21:16.518Z,76.20
2023-09-01T04:23:43.088Z,76.38
2023-09-01T04:26:09.715Z,76.36
2023-09-01T04:28:36.186Z,76.48
2023-09-01T04:31:03.824Z,76.41
2023-09-01T04:33:31.089Z,76.37
2023-09-01T04:36:01.644Z,76.66
2023-09-01T04:38:28.172Z,76.52
2023-09-01T04:40:56.767Z,76.84
2023-09-01T04:43:26.625Z,75.92
2023-09-01T04:45:56.962Z,75.39
2023-09-01T04:48:24.262Z,74.78
2023-09-01T04:50:51.227Z,74.06
2023-09-01T04:53:18.771Z,73.58
2023-09-01T04:55:45.624Z,73.14
2023-09-01T04:58:12.212Z,72.90
2023-09-01T05:00:39.072Z,72.45
2023-09-01T05:03:05.802Z,72.06
2023-09-01T05:05:32.322Z,71.80
2023-09-01T05:07:58.821Z,71.59
2023-09-01T05:10:25.278Z,71.09
2023-09-01T05:12:51.744Z,70.97
2023-09-01T05:15:20.053Z,70.71
2023-09-01T05:17:47.253Z,70.59
2023-09-01T05:20:13.740Z,70.42
2023-09-01T05:22:40.373Z,70.23
2023-09-01T05:25:07.525Z,69.99
2023-09-01T05:27:33.942Z,69.86
2023-09-01T05:30:00.561Z,69.81
2023-09-01T05:32:27.031Z,69.73
2023-09-01T05:34:53.527Z,69.41
2023-09-01T05:37:19.969Z,69.33
2023-09-01T05:39:46.404Z,69.23
2023-09-01T05:42:13.124Z,69.26
2023-09-01T05:44:39.581Z,69.44
2023-09-01T05:47:06.237Z,69.37
2023-09-01T05:49:33.905Z,69.19
2023-09-01T05:52:01.821Z,68.92
2023-09-01T05:54:28.644Z,69.01
2023-09-01T05:56:55.642Z,68.93
2023-09-01T05:59:22.410Z,69.13
2023-09-01T06:01:49.187Z,69.06
2023-09-01T06:04:15.649Z,68.97
2023-09-01T06:06:42.920Z,68.96
2023-09-01T06:09:09.834Z,68.80
2023-09-01T06:11:38.316Z,68.75
2023-09-01T06:14:05.038Z,68.74
2023-09-01T06:16:31.501Z,68.52
2023-09-01T06:19:04.405Z,68.47
2023-09-01T06:21:32.256Z,68.50
2023-09-01T06:23:58.833Z,68.48
2023-09-01T06:26:25.281Z,68.70
2023-09-01T06:28:51.742Z,68.58
2023-09-01T06:31:18.304Z,68.56
2023-09-01T06:33:45.993Z,68.59
2023-09-01T06:36:14.466Z,68.50
2023-09-01T06:38:42.404Z,68.39
2023-09-01T06:41:10.144Z,68.19
2023-09-01T06:43:37.244Z,68.19
2023-09-01T06:46:04.216Z,68.32
2023-09-01T06:48:32.373Z,68.26
2023-09-01T06:51:03.651Z,68.22
2023-09-01T06:53:30.895Z,68.26
2023-09-01T06:55:57.461Z,68.15
2023-09-01T06:58:23.997Z,68.15
2023-09-01T07:00:52.683Z,68.18
2023-09-01T07:03:21.321Z,68.23
2023-09-01T07:05:55.253Z,68.18
2023-09-01T07:08:22.061Z,68.07
2023-09-01T07:10:48.610Z,68.11
2023-09-01T07:13:15.098Z,68.79
2023-09-01T07:15:41.603Z,69.16
2023-09-01T07:18:08.209Z,69.90
2023-09-01T07:20:34.654Z,70.27
2023-09-01T07:23:01.144Z,70.64
2023-09-01T07:25:27.568Z,71.18
2023-09-01T07:27:54.048Z,71.47
2023-09-01T07:30:20.829Z,71.25
2023-09-01T07:32:48.196Z,71.08
2023-09-01T07:35:14.710Z,70.62
2023-09-01T07:37:41.152Z,70.53
2023-09-01T07:40:08.188Z,70.16
2023-09-01T07:42:34.643Z,69.80
2023-09-01T07:45:01.097Z,69.59
2023-09-01T07:47:27.742Z,69.36
2023-09-01T07:49:54.213Z,69.42
2023-09-01T07:52:20.662Z,69.32
2023-09-01T07:54:47.136Z,69.35
2023-09-01T07:57:13.615Z,69.08
2023-09-01T07:59:41.006Z,69.24
2023-09-01T08:02:07.579Z,69.04
2023-09-01T08:04:34.164Z,68.86
2023-09-01T08:07:00.861Z,69.15
2023-09-01T08:09:27.745Z,68.94
2023-09-01T08:11:54.170Z,68.81
2023-09-01T08:14:20.652Z,68.96
2023-09-01T08:16:47.094Z,69.08
2023-09-01T08:19:13.551Z,68.95
2023-09-01T08:21:40.102Z,68.95
2023-09-01T08:24:08.196Z,68.91
2023-09-01T08:26:35.052Z,68.74
2023-09-01T08:29:01.481Z,68.77
2023-09-01T08:31:28.009Z,68.68
2023-09-01T08:33:55.355Z,68.79
2023-09-01T08:36:22.749Z,68.78
2023-09-01T08:38:49.244Z,68.77
2023-09-01T08:41:15.738Z,68.78
2023-09-01T08:43:43.552Z,69.07
2023-09-01T08:46:14.974Z,69.24
2023-09-01T08:48:42.733Z,68.99
2023-09-01T08:51:09.773Z,69.13
2023-09-01T08:53:40.082Z,69.06
2023-09-01T08:56:06.780Z,69.11
2023-09-01T08:58:33.811Z,69.39
2023-09-01T09:01:00.518Z,69.36
2023-09-01T09:03:27.203Z,69.41
2023-09-01T09:05:54.254Z,69.23
2023-09-01T09:08:21.472Z,69.37
2023-09-01T09:10:47.930Z,69.35
2023-09-01T09:13:25.441Z,69.53
2023-09-01T09:16:07.005Z,69.38
2023-09-01T09:18:33.755Z,69.39
2023-09-01T09:21:00.833Z,69.07
2023-09-01T09:23:46.599Z,69.45
2023-09-01T09:26:13.653Z,69.46
2023-09-01T09:28:41.452Z,69.39
2023-09-01T09:31:08.072Z,69.51
2023-09-01T09:33:35.459Z,69.19
2023-09-01T09:36:04.524Z,69.39
2023-09-01T09:38:45.017Z,69.36
2023-09-01T09:41:11.532Z,69.13
2023-09-01T09:43:49.103Z,69.11
2023-09-01T09:46:17.395Z,68.85
2023-09-01T09:48:44.842Z,68.91
2023-09-01T09:51:11.707Z,68.85
2023-09-01T09:53:42.633Z,68.39
2023-09-01T09:56:15.023Z,68.52
2023-09-01T09:58:41.911Z,68.05
2023-09-01T10:01:19.102Z,68.22
2023-09-01T10:03:47.559Z,68.06
2023-09-01T10:06:15.910Z,68.12
2023-09-01T10:08:43.175Z,68.01
2023-09-01T10:11:10.518Z,67.82
2023-09-01T10:13:37.986Z,67.80
2023-09-01T10:16:04.736Z,67.80
2023-09-01T10:18:32.473Z,67.59
2023-09-01T10:20:59.012Z,67.48
2023-09-01T10:23:26.111Z,67.28
2023-09-01T10:26:17.900Z,67.13
2023-09-01T10:29:17.672Z,67.09
2023-09-01T10:31:45.372Z,67.07
2023-09-01T10:34:16.202Z,67.11
2023-09-01T10:36:44.413Z,66.88
2023-09-01T10:39:20.026Z,66.73
2023-09-01T10:42:04.246Z,66.77
2023-09-01T10:44:45.733Z,66.64
2023-09-01T10:47:34.414Z,66.89
2023-09-01T10:50:04.020Z,66.80
2023-09-01T10:52:32.730Z,67.18
2023-09-01T10:55:05.253Z,67.20
2023-09-01T10:57:50.264Z,67.87
2023-09-01T11:00:34.156Z,68.22
2023-09-01T11:03:32.341Z,68.04
2023-09-01T11:06:00.452Z,68.42
2023-09-01T11:08:27.522Z,68.55
2023-09-01T11:11:06.945Z,69.10
2023-09-01T11:13:33.637Z,69.24
2023-09-01T11:16:09.156Z,69.41
2023-09-01T11:18:35.857Z,68.97
2023-09-01T11:21:02.450Z,68.84
2023-09-01T11:23:33.945Z,68.42
2023-09-01T11:26:01.535Z,68.25
2023-09-01T11:28:29.411Z,68.10
2023-09-01T11:30:58.077Z,67.99
2023-09-01T11:33:26.374Z,68.15
2023-09-01T11:36:05.925Z,67.81
2023-09-01T11:38:32.526Z,67.53
2023-09-01T11:41:01.200Z,67.25
2023-09-01T11:43:30.261Z,67.03
2023-09-01T11:45:58.562Z,66.92
2023-09-01T11:48:26.182Z,67.03
2023-09-01T11:50:58.507Z,66.87
2023-09-01T11:53:28.058Z,66.76
2023-09-01T11:55:59.739Z,66.77
2023-09-01T11:58:45.578Z,66.87
2023-09-01T12:01:13.172Z,66.91
2023-09-01T12:03:43.860Z,66.79
2023-09-01T12:06:25.913Z,66.93
2023-09-01T12:08:54.275Z,67.00
2023-09-01T12:11:23.285Z,67.14
2023-09-01T12:13:50.015Z,67.06
2023-09-01T12:16:24.814Z,67.14
2023-09-01T12:18:52.950Z,68.11
2023-09-01T12:21:19.875Z,68.05
2023-09-01T12:23:48.018Z,68.19
2023-09-01T12:26:16.978Z,68.44
2023-09-01T12:28:44.700Z,68.30
2023-09-01T12:31:12.544Z,68.64
2023-09-01T12:33:39.437Z,69.10
2023-09-01T12:36:06.146Z,69.14
2023-09-01T12:38:32.750Z,69.16
2023-09-01T12:40:59.256Z,69.21
2023-09-01T12:43:25.691Z,69.51
2023-09-01T12:45:52.308Z,69.36
2023-09-01T12:48:18.995Z,69.70
2023-09-01T12:50:47.763Z,69.54
2023-09-01T12:53:15.641Z,69.50
2023-09-01T12:55:42.470Z,69.72
2023-09-01T12:58:09.767Z,69.84
2023-09-01T13:00:36.234Z,69.69
2023-09-01T13:03:02.782Z,69.70
2023-09-01T13:05:31.698Z,69.81
2023-09-01T13:08:00.622Z,70.19
2023-09-01T13:10:28.272Z,69.70
2023-09-01T13:12:54.953Z,69.61
2023-09-01T13:15:21.538Z,69.78
2023-09-01T13:17:48.480Z,69.90
2023-09-01T13:20:16.139Z,70.46
2023-09-01T13:22:43.103Z,70.43
2023-09-01T13:25:10.771Z,70.48
2023-09-01T13:27:37.420Z,70.62
2023-09-01T13:30:04.394Z,70.79
2023-09-01T13:32:30.898Z,70.60
2023-09-01T13:34:57.371Z,70.51
2023-09-01T13:37:26.192Z,70.94
2023-09-01T13:40:00.574Z,70.78
2023-09-01T13:42:28.102Z,70.72
2023-09-01T13:44:58.652Z,70.67
2023-09-01T13:47:26.131Z,70.86
2023-09-01T13:49:56.340Z,71.00
2023-09-01T13:52:23.437Z,70.74
2023-09-01T13:54:51.790Z,70.74
2023-09-01T13:57:18.858Z,70.69
2023-09-01T13:59:45.406Z,70.94
2023-09-01T14:02:11.974Z,71.08
2023-09-01T14:04:38.550Z,70.85
2023-09-01T14:07:05.191Z,70.29
2023-09-01T14:09:32.288Z,69.55
2023-09-01T14:11:58.891Z,69.28
2023-09-01T14:14:25.376Z,69.49
2023-09-01T14:16:51.884Z,68.69
2023-09-01T14:19:18.378Z,68.88
2023-09-01T14:21:45.137Z,68.65
2023-09-01T14:24:15.638Z,67.73
2023-09-01T14:26:42.666Z,67.26
2023-09-01T14:29:09.296Z,67.71
2023-09-01T14:31:35.772Z,68.00
2023-09-01T14:34:02.207Z,67.49
2023-09-01T14:36:29.057Z,66.69
2023-09-01T14:38:56.812Z,66.51
2023-09-01T14:41:23.455Z,66.71
2023-09-01T14:43:50.185Z,66.91
2023-09-01T14:46:18.734Z,66.99
2023-09-01T14:48:47.241Z,66.84
2023-09-01T14:51:17.920Z,66.68
2023-09-01T14:53:47.189Z,66.76
2023-09-01T14:56:15.407Z,66.68
2023-09-01T14:58:42.165Z,67.16
2023-09-01T15:01:08.650Z,66.79
2023-09-01T15:03:35.239Z,66.34
2023-09-01T15:06:01.847Z,66.44
2023-09-01T15:08:28.272Z,66.20
2023-09-01T15:10:56.013Z,66.25
2023-09-01T15:13:23.231Z,66.53
2023-09-01T15:15:50.595Z,66.24
2023-09-01T15:18:17.596Z,66.10
2023-09-01T15:20:44.399Z,65.58
2023-09-01T15:23:10.926Z,65.71
2023-09-01T15:25:38.812Z,65.93
2023-09-01T15:28:05.983Z,65.45
2023-09-01T15:30:32.572Z,65.50
2023-09-01T15:32:59.013Z,65.85
2023-09-01T15:35:28.717Z,66.11
2023-09-01T15:37:57.304Z,65.51
2023-09-01T15:40:23.973Z,65.33
2023-09-01T15:42:54.804Z,64.99
2023-09-01T15:45:21.473Z,65.52
2023-09-01T15:47:48.060Z,65.83
2023-09-01T15:50:17.702Z,65.79
2023-09-01T15:52:46.847Z,65.83
2023-09-01T15:55:13.330Z,66.01
2023-09-01T15:57:40.922Z,66.92
2023-09-01T16:00:08.976Z,67.17
2023-09-01T16:02:35.529Z,67.75
2023-09-01T16:05:02.130Z,67.87
2023-09-01T16:07:28.801Z,67.97
2023-09-01T16:09:55.242Z,68.46
2023-09-01T16:12:21.752Z,68.69
2023-09-01T16:14:48.238Z,69.14
2023-09-01T16:17:14.978Z,68.97
2023-09-01T16:19:41.393Z,69.33
2023-09-01T16:22:07.828Z,69.37
2023-09-01T16:24:34.351Z,69.43
2023-09-01T16:27:00.781Z,69.50
2023-09-01T16:29:27.298Z,69.63
2023-09-01T16:31:54.301Z,69.74
2023-09-01T16:34:20.750Z,69.52
2023-09-01T16:36:47.345Z,70.08
2023-09-01T16:39:14.751Z,69.83
2023-09-01T16:41:41.248Z,70.15
2023-09-01T16:44:08.191Z,70.62
2023-09-01T16:46:35.035Z,70.46
2023-09-01T16:49:01.531Z,70.61
2023-09-01T16:51:28.002Z,70.78
2023-09-01T16:53:54.490Z,70.92
2023-09-01T16:56:20.920Z,71.41
2023-09-01T16:58:47.357Z,71.76
2023-09-01T17:01:13.819Z,71.95
2023-09-01T17:03:40.372Z,72.56
2023-09-01T17:06:06.887Z,72.49
2023-09-01T17:08:41.903Z,71.55
2023-09-01T17:11:08.348Z,71.71
2023-09-01T17:13:34.835Z,72.13
2023-09-01T17:16:01.255Z,72.11
2023-09-01T17:18:27.696Z,72.18
2023-09-01T17:20:55.675Z,72.01
2023-09-01T17:23:22.231Z,72.29
2023-09-01T17:25:48.727Z,72.79
2023-09-01T17:28:15.205Z,72.72
2023-09-01T17:30:41.744Z,73.00
2023-09-01T17:33:08.257Z,73.19
2023-09-01T17:35:34.680Z,73.15
2023-09-01T17:38:01.234Z,73.22
2023-09-01T17:40:27.697Z,73.42
2023-09-01T17:42:54.185Z,73.81
2023-09-01T17:45:20.600Z,73.67
2023-09-01T17:47:48.310Z,73.48
2023-09-01T17:50:14.955Z,73.81
2023-09-01T17:52:41.394Z,73.97
2023-09-01T17:55:07.883Z,74.22
2023-09-01T17:57:34.325Z,75.13
2023-09-01T18:00:00.786Z,75.15
2023-09-01T18:02:37.626Z,76.37
2023-09-01T18:05:06.783Z,76.51
2023-09-01T18:07:35.060Z,77.42
2023-09-01T18:10:02.652Z,77.48
2023-09-01T18:12:29.185Z,77.54
2023-09-01T18:14:55.636Z,79.47
2023-09-01T18:17:25.305Z,79.00
2023-09-01T18:19:52.835Z,79.24
2023-09-01T18:22:19.280Z,79.08
2023-09-01T18:24:45.965Z,79.75
2023-09-01T18:27:24.976Z,80.72
2023-09-01T18:29:51.617Z,80.44
2023-09-01T18:32:18.139Z,80.05
2023-09-01T18:34:45.025Z,80.28
2023-09-01T18:37:17.225Z,81.20
2023-09-01T18:39:43.711Z,81.07
2023-09-01T18:42:35.657Z,82.02
2023-09-01T18:45:02.970Z,81.34
2023-09-01T18:47:29.710Z,81.45
2023-09-01T18:49:56.344Z,81.41
2023-09-01T18:52:22.825Z,81.60
2023-09-01T18:54:49.354Z,81.54
2023-09-01T18:57:16.215Z,81.62
2023-09-01T18:59:43.639Z,81.88
2023-09-01T19:02:32.496Z,81.54
2023-09-01T19:05:01.880Z,81.61
2023-09-01T19:07:29.625Z,81.40
2023-09-01T19:09:56.145Z,81.52
2023-09-01T19:12:23.674Z,81.86
2023-09-01T19:14:50.392Z,82.11
2023-09-01T19:17:19.242Z,82.23
2023-09-01T19:19:45.699Z,82.49
2023-09-01T19:22:13.984Z,82.51
2023-09-01T19:24:40.426Z,82.73
2023-09-01T19:27:08.539Z,82.58
2023-09-01T19:29:35.239Z,82.42
2023-09-01T19:32:01.792Z,82.61
2023-09-01T19:34:28.341Z,82.89
2023-09-01T19:36:54.817Z,82.79
2023-09-01T19:39:25.895Z,83.14
2023-09-01T19:41:53.431Z,83.04
2023-09-01T19:44:20.018Z,82.65
2023-09-01T19:46:46.631Z,82.75
2023-09-01T19:49:14.152Z,82.82
2023-09-01T19:51:44.248Z,83.09
2023-09-01T19:54:14.447Z,83.02
2023-09-01T19:56:40.928Z,82.93
2023-09-01T19:59:07.492Z,82.91
2023-09-01T20:01:35.757Z,83.15
2023-09-01T20:04:03.042Z,83.08
2023-09-01T20:06:30.040Z,83.19
2023-09-01T20:09:01.240Z,83.32
2023-09-01T20:11:28.311Z,83.45
2023-09-01T20:13:55.204Z,83.19
2023-09-01T20:16:32.569Z,83.84
2023-09-01T20:19:17.841Z,84.14
2023-09-01T20:21:44.391Z,83.45
2023-09-01T20:24:10.867Z,83.55
2023-09-01T20:26:37.322Z,83.55
2023-09-01T20:29:05.188Z,83.47
2023-09-01T20:31:31.744Z,83.51
2023-09-01T20:33:58.434Z,83.83
2023-09-01T20:36:25.211Z,83.70
2023-09-01T20:38:51.752Z,83.89
2023-09-01T20:41:18.899Z,83.92
2023-09-01T20:43:45.324Z,83.86
2023-09-01T20:46:11.927Z,84.05
2023-09-01T20:48:38.940Z,83.91
2023-09-01T20:51:05.841Z,84.02
2023-09-01T20:53:32.365Z,84.35
2023-09-01T20:56:03.511Z,84.15
2023-09-01T20:58:30.920Z,84.48
2023-09-01T21:00:57.826Z,84.57
2023-09-01T21:03:24.302Z,84.58
2023-09-01T21:05:50.778Z,84.50
2023-09-01T21:08:17.212Z,84.50
2023-09-01T21:10:43.645Z,84.54
2023-09-01T21:13:10.080Z,84.53
2023-09-01T21:15:36.572Z,84.33
2023-09-01T21:18:03.372Z,84.37
2023-09-01T21:20:29.912Z,84.41
2023-09-01T21:22:56.347Z,84.37
2023-09-01T21:25:22.832Z,84.29
2023-09-01T21:27:49.268Z,84.30
2023-09-01T21:30:17.916Z,84.32
2023-09-01T21:32:45.637Z,84.53
2023-09-01T21:35:12.796Z,84.46
2023-09-01T21:37:39.689Z,84.47
2023-09-01T21:40:08.716Z,84.39
2023-09-01T21:42:36.466Z,84.22
2023-09-01T21:45:05.018Z,84.50
2023-09-01T21:47:33.056Z,84.59
2023-09-01T21:49:59.595Z,84.51
2023-09-01T21:52:26.121Z,84.46
2023-09-01T21:54:52.536Z,84.22
2023-09-01T21:57:19.006Z,83.37
2023-09-01T21:59:45.453Z,82.65
2023-09-01T22:02:12.050Z,81.93
2023-09-01T22:04:38.590Z,81.19
2023-09-01T22:07:06.555Z,80.53
2023-09-01T22:09:33.598Z,80.04
2023-09-01T22:12:00.019Z,80.00
2023-09-01T22:14:26.486Z,80.27
2023-09-01T22:16:53.024Z,80.73
2023-09-01T22:19:19.471Z,81.03
2023-09-01T22:21:46.426Z,81.49
2023-09-01T22:24:13.901Z,81.79
2023-09-01T22:26:40.521Z,82.10
2023-09-01T22:29:07.004Z,82.35
2023-09-01T22:31:34.000Z,82.59
2023-09-01T22:34:00.570Z,82.70
2023-09-01T22:36:26.986Z,83.22
2023-09-01T22:38:53.593Z,83.21
2023-09-01T22:41:22.197Z,83.25
2023-09-01T22:43:48.855Z,83.14
2023-09-01T22:46:15.297Z,83.08
2023-09-01T22:48:41.742Z,83.45
2023-09-01T22:51:08.170Z,83.25
2023-09-01T22:53:34.578Z,83.46
2023-09-01T22:56:01.057Z,83.53
2023-09-01T22:58:27.494Z,83.59
2023-09-01T23:00:53.929Z,83.73
2023-09-01T23:03:20.585Z,83.73
2023-09-01T23:05:47.336Z,83.92
2023-09-01T23:08:13.764Z,83.75
2023-09-01T23:10:40.168Z,83.93
2023-09-01T23:13:06.618Z,83.95
2023-09-01T23:15:33.058Z,84.09
2023-09-01T23:17:59.553Z,84.31
2023-09-01T23:20:26.545Z,84.16
2023-09-01T23:22:53.058Z,84.38
2023-09-01T23:25:19.846Z,84.40
2023-09-01T23:27:46.395Z,84.58
2023-09-01T23:30:13.638Z,84.59
2023-09-01T23:32:40.133Z,84.71
2023-09-01T23:35:06.960Z,84.41
2023-09-01T23:37:34.359Z,84.51
2023-09-01T23:40:00.808Z,84.61
2023-09-01T23:42:27.425Z,84.46
2023-09-01T23:44:54.879Z,84.48
2023-09-01T23:47:21.425Z,84.77
2023-09-01T23:49:47.939Z,84.62
2023-09-01T23:52:14.399Z,84.66
2023-09-01T23:54:40.894Z,84.57
2023-09-01T23:57:07.312Z,84.51
2023-09-01T23:59:33.753Z,84.33
